Time;durP1;ratioP1;P1;durP2;ratioP2;P2;SDS_P1;SDS_P2;PMS_P1;PMS_P2;Temp;Humidity;BMP_temperature;BMP_pressure;BME280_temperature;BME280_humidity;BME280_pressure;Samples;Min_cycle;Max_cycle;Signal;HPM_P1;HPM_P2
2022/02/03 00:05:32;;;;;;;25.67;16.23;;;;;;;0.79;90.91;98724.34;1662151;85;21069;-78
2022/02/03 00:07:18;;;;;;;26.87;14.80;;;;;;;0.80;90.84;98730.45;1614857;87;21560;-90
2022/02/03 00:10:03;;;;;;;21.83;16.73;;;;;;;0.77;90.76;98728.20;1651652;86;21064;-86
2022/02/03 00:23:15;;;;;;;27.87;15.70;;;;;;;0.95;90.42;98733.64;1658717;85;21774;-77
2022/02/03 00:25:38;;;;;;;24.30;17.10;;;;;;;0.99;90.21;98728.72;1636213;86;21037;-76
2022/02/03 00:28:05;;;;;;;26.40;14.90;;;;;;;1.00;89.94;98731.17;1638544;86;20978;-71
2022/02/03 00:31:35;;;;;;;30.77;18.23;;;;;;;1.00;89.73;98725.88;1658925;85;21519;-78
2022/02/03 00:35:58;;;;;;;25.40;16.87;;;;;;;1.06;89.69;98723.68;1661965;85;21073;-72
2022/02/03 00:38:24;;;;;;;27.93;17.33;;;;;;;1.06;89.19;98730.30;1639864;86;21198;-81
2022/02/03 00:49:00;;;;;;;30.47;19.03;;;;;;;1.08;89.11;98715.53;1659168;86;21069;-79
2022/02/03 00:51:30;;;;;;;32.67;21.73;;;;;;;1.15;89.05;98718.97;1640783;86;21089;-84
2022/02/03 00:53:58;;;;;;;24.72;16.85;;;;;;;1.22;88.92;98709.13;1656309;85;21017;-74
2022/02/03 00:56:39;;;;;;;28.87;18.23;;;;;;;1.28;88.72;98717.05;1651262;86;21073;-74
2022/02/03 00:59:10;;;;;;;26.82;16.50;;;;;;;1.32;88.50;98718.75;1656928;86;20999;-75
2022/02/03 01:01:39;;;;;;;28.87;17.70;;;;;;;1.36;88.24;98716.47;1664533;86;21694;-73
2022/02/03 01:04:08;;;;;;;27.50;19.67;;;;;;;1.37;87.96;98716.78;1664587;85;21173;-71
2022/02/03 01:06:39;;;;;;;29.90;19.60;;;;;;;1.35;87.80;98722.79;1664196;86;20912;-70
2022/02/03 01:09:06;;;;;;;27.58;19.32;;;;;;;1.37;87.79;98721.56;1663523;86;21102;-72
2022/02/03 01:11:37;;;;;;;24.60;16.47;;;;;;;1.39;87.65;98722.14;1651366;86;21657;-71
2022/02/03 01:14:12;;;;;;;30.83;16.93;;;;;;;1.41;87.43;98728.05;1650062;86;20996;-75
2022/02/03 01:16:51;;;;;;;26.33;16.70;;;;;;;1.41;87.25;98725.41;1645266;87;21166;-75
2022/02/03 01:37:49;;;;;;;26.93;19.33;;;;;;;1.51;86.82;98726.25;1642167;86;21043;-74
2022/02/03 01:53:36;;;;;;;32.98;22.10;;;;;;;1.54;86.59;98737.22;1645788;85;21601;-85
2022/02/03 01:56:09;;;;;;;38.50;23.63;;;;;;;1.52;86.35;98735.83;1678872;84;21581;-79
2022/02/03 01:58:47;;;;;;;29.98;21.55;;;;;;;1.52;86.51;98734.50;1681522;85;21150;-78
2022/02/03 02:01:26;;;;;;;40.90;25.23;;;;;;;1.53;86.49;98734.30;1668300;85;21843;-81
2022/02/03 02:04:25;;;;;;;35.03;24.52;;;;;;;1.54;86.50;98729.78;1671887;85;21040;-83
2022/02/03 02:07:20;;;;;;;34.20;21.30;;;;;;;1.58;86.50;98734.98;1661534;85;21586;-86
2022/02/03 02:13:16;;;;;;;37.20;22.67;;;;;;;1.61;86.31;98730.56;1621005;85;21518;-83
2022/02/03 02:15:58;;;;;;;38.53;22.67;;;;;;;1.62;86.24;98723.73;1661036;85;21025;-78
2022/02/03 02:18:46;;;;;;;33.65;22.58;;;;;;;1.62;86.23;98723.73;1661325;85;21077;-77
2022/02/03 02:40:30;;;;;;;35.63;20.97;;;;;;;1.77;85.76;98739.31;1632837;87;21074;-77
2022/02/03 02:43:19;;;;;;;32.53;20.17;;;;;;;1.77;85.60;98730.03;1660400;85;21028;-77
2022/02/03 02:45:56;;;;;;;30.88;19.62;;;;;;;1.77;85.62;98727.89;1642810;86;21062;-76
2022/02/03 02:48:46;;;;;;;33.90;20.57;;;;;;;1.77;85.67;98726.06;1674709;84;21032;-77
2022/02/03 02:51:19;;;;;;;28.05;19.85;;;;;;;1.79;85.64;98731.94;1636826;86;21144;-78
2022/02/03 02:54:04;;;;;;;29.82;19.75;;;;;;;1.82;85.66;98735.50;1650884;86;21051;-76
2022/02/03 03:00:10;;;;;;;33.53;19.65;;;;;;;1.88;85.57;98725.33;1602141;86;21084;-80
2022/02/03 03:02:38;;;;;;;34.77;22.00;;;;;;;1.88;85.48;98725.84;1648721;85;21021;-76
2022/02/03 03:37:25;;;;;;;26.15;18.80;;;;;;;2.03;84.99;98748.34;1661422;85;21077;-81
2022/02/03 03:39:47;;;;;;;33.25;20.88;;;;;;;2.03;84.87;98750.19;1652973;85;21105;-82
2022/02/03 03:42:14;;;;;;;34.15;22.65;;;;;;;1.97;84.89;98758.48;1661423;85;21618;-80
2022/02/03 03:44:42;;;;;;;31.73;20.62;;;;;;;1.90;84.96;98753.77;1661285;85;21970;-79
2022/02/03 03:47:15;;;;;;;35.15;23.02;;;;;;;1.82;85.14;98764.66;1661290;85;20946;-80
2022/02/03 03:49:46;;;;;;;34.98;23.47;;;;;;;1.79;85.42;98772.20;1660453;85;21014;-80
2022/02/03 03:52:21;;;;;;;35.15;21.30;;;;;;;1.81;85.65;98768.84;1661323;85;21080;-80
2022/02/03 03:55:02;;;;;;;29.07;20.82;;;;;;;1.76;85.72;98778.77;1661127;86;22224;-80
2022/02/03 04:39:24;;;;;;;34.80;22.58;;;;;;;1.40;88.43;98805.89;1661306;86;21073;-78
2022/02/03 04:42:26;;;;;;;35.33;21.65;;;;;;;1.41;88.58;98806.70;1663070;85;20990;-77
2022/02/03 05:00:06;;;;;;;35.00;23.42;;;;;;;1.63;88.63;98812.78;1636455;86;21125;-76
2022/02/03 05:02:30;;;;;;;35.90;26.07;;;;;;;1.69;88.68;98817.23;1606525;88;21044;-76
2022/02/03 05:05:19;;;;;;;38.80;26.68;;;;;;;1.68;88.41;98820.90;1619507;88;21096;-80
2022/02/03 05:20:49;;;;;;;30.87;22.27;;;;;;;1.92;88.33;98840.52;1653208;86;21097;-75
2022/02/03 05:26:40;;;;;;;37.53;24.85;;;;;;;1.95;88.12;98847.24;1666540;85;20970;-75
2022/02/03 05:33:02;;;;;;;31.05;21.15;;;;;;;1.92;87.97;98854.31;1656788;86;21030;-76
2022/02/03 05:42:02;;;;;;;38.25;24.70;;;;;;;1.91;88.10;98860.13;1651626;86;21086;-75
2022/02/03 05:44:25;;;;;;;38.88;26.10;;;;;;;2.01;88.24;98868.92;1634188;86;21798;-76
2022/02/03 05:51:01;;;;;;;37.40;22.93;;;;;;;2.11;88.26;98878.01;1639926;86;20914;-76
2022/02/03 06:03:18;;;;;;;39.85;27.65;;;;;;;2.16;88.05;98886.64;1675711;84;21514;-76
2022/02/03 06:05:49;;;;;;;39.85;26.65;;;;;;;2.17;87.90;98886.44;1665537;85;21558;-77
2022/02/03 06:08:24;;;;;;;36.50;24.82;;;;;;;2.19;87.95;98883.58;1643237;84;21815;-81
2022/02/03 06:13:42;;;;;;;36.23;22.60;;;;;;;2.29;88.03;98889.22;1621132;87;21031;-73
2022/02/03 06:21:33;;;;;;;29.85;20.82;;;;;;;2.39;87.80;98892.72;1674923;85;21037;-78
2022/02/03 06:24:07;;;;;;;45.35;24.50;;;;;;;2.44;87.64;98895.53;1661449;85;21029;-79
2022/02/03 06:29:21;;;;;;;39.05;26.12;;;;;;;2.48;87.42;98909.98;1661704;85;20997;-74
2022/02/03 06:31:50;;;;;;;37.40;25.23;;;;;;;2.52;87.42;98905.86;1674942;85;21056;-75
2022/02/03 06:34:16;;;;;;;38.28;24.85;;;;;;;2.53;87.15;98914.95;1661990;85;21079;-75
2022/02/03 06:36:44;;;;;;;35.48;23.07;;;;;;;2.56;87.25;98915.02;1661049;85;21610;-76
2022/02/03 06:39:20;;;;;;;32.58;23.95;;;;;;;2.59;87.05;98918.58;1671556;85;21019;-78
2022/02/03 06:41:50;;;;;;;42.40;28.05;;;;;;;2.57;86.95;98925.94;1661424;86;21071;-74
2022/02/03 06:44:16;;;;;;;47.15;27.77;;;;;;;2.51;86.80;98922.30;1661245;85;22304;-76
2022/02/03 06:46:51;;;;;;;44.53;28.65;;;;;;;2.47;86.85;98922.44;1661106;85;21309;-77
2022/02/03 06:52:22;;;;;;;57.27;33.10;;;;;;;2.44;86.91;98928.70;1661340;85;21666;-76
2022/02/03 06:55:01;;;;;;;49.15;30.55;;;;;;;2.44;87.10;98932.17;1653974;84;21267;-78
2022/02/03 06:57:22;;;;;;;41.37;27.52;;;;;;;2.52;87.18;98935.05;1669299;85;21025;-79
2022/02/03 06:59:57;;;;;;;38.88;24.18;;;;;;;2.56;87.08;98936.25;1648849;86;21251;-77
2022/02/03 07:02:11;;;;;;;39.08;25.80;;;;;;;2.57;87.03;98932.56;1652842;85;21504;-79
2022/02/03 07:04:43;;;;;;;30.57;20.25;;;;;;;2.57;87.03;98936.03;1668522;84;21041;-78
2022/02/03 07:07:06;;;;;;;30.45;20.12;;;;;;;2.58;86.97;98939.00;1647395;86;21062;-80
2022/02/03 07:09:32;;;;;;;31.53;21.70;;;;;;;2.54;86.94;98938.32;1656560;86;21028;-79
2022/02/03 07:12:01;;;;;;;39.33;25.12;;;;;;;2.52;87.09;98945.16;1671625;85;21005;-77
2022/02/03 07:14:30;;;;;;;32.73;22.87;;;;;;;2.54;87.20;98949.72;1659236;86;20969;-79
2022/02/03 07:16:57;;;;;;;34.60;23.55;;;;;;;2.59;87.31;98956.52;1656759;86;20981;-80
2022/02/03 07:19:24;;;;;;;34.90;24.32;;;;;;;2.64;87.30;98959.34;1658981;86;21006;-79
2022/02/03 07:21:50;;;;;;;35.33;25.30;;;;;;;2.71;87.22;98967.77;1658997;86;21068;-80
2022/02/03 07:24:17;;;;;;;31.45;21.95;;;;;;;2.76;87.14;98963.95;1652988;86;21140;-82
2022/02/03 07:26:44;;;;;;;27.58;20.10;;;;;;;2.82;87.04;98969.73;1658796;85;20993;-81
2022/02/03 07:29:11;;;;;;;32.45;22.87;;;;;;;2.83;86.78;98966.84;1668793;85;21008;-88
2022/02/03 07:31:38;;;;;;;38.38;26.27;;;;;;;2.81;86.64;98968.92;1658890;85;21058;-86
2022/02/03 07:34:10;;;;;;;41.00;26.17;;;;;;;2.83;86.65;98974.02;1668559;86;21112;-83
2022/02/03 07:36:34;;;;;;;45.05;29.42;;;;;;;2.84;86.56;98975.62;1659367;85;21025;-83
2022/02/03 07:39:02;;;;;;;39.13;27.30;;;;;;;2.85;86.53;98975.41;1659648;86;20985;-83
2022/02/03 07:41:28;;;;;;;48.68;29.72;;;;;;;2.87;86.43;98982.66;1675463;84;20917;-84
2022/02/03 07:43:59;;;;;;;53.42;33.08;;;;;;;2.80;86.23;98980.56;1670367;85;21045;-83
2022/02/03 07:46:25;;;;;;;69.27;45.10;;;;;;;2.68;86.25;98983.64;1659303;86;21050;-85
2022/02/03 07:48:53;;;;;;;52.05;33.90;;;;;;;2.59;86.48;98987.59;1647771;86;21514;-84
2022/02/03 07:51:20;;;;;;;46.28;30.23;;;;;;;2.54;86.89;98989.53;1635474;87;21035;-80
2022/02/03 07:53:46;;;;;;;48.05;33.38;;;;;;;2.51;87.21;98989.16;1656459;86;21597;-78
2022/02/03 07:56:12;;;;;;;47.13;30.15;;;;;;;2.55;87.55;98989.84;1634609;87;21706;-76
2022/02/03 07:58:41;;;;;;;41.80;29.20;;;;;;;2.58;87.72;98996.06;1632072;87;21054;-77
2022/02/03 08:01:08;;;;;;;45.92;32.88;;;;;;;2.63;88.20;98989.59;1669559;85;22128;-78
2022/02/03 08:03:37;;;;;;;39.08;27.13;;;;;;;2.66;88.15;98992.83;1681648;84;21239;-77
2022/02/03 08:06:06;;;;;;;36.35;24.63;;;;;;;2.71;88.17;98991.16;1656325;86;20985;-78
2022/02/03 08:09:03;;;;;;;42.25;28.23;;;;;;;2.78;88.02;98994.55;1666311;84;21590;-77
2022/02/03 08:11:06;;;;;;;38.20;26.17;;;;;;;2.80;87.82;98995.16;1674600;84;21116;-77
2022/02/03 08:13:47;;;;;;;40.38;28.02;;;;;;;2.84;87.68;98992.88;1667717;84;21169;-76
2022/02/03 08:16:13;;;;;;;39.58;28.35;;;;;;;2.90;87.74;98996.00;1657392;85;21050;-77
2022/02/03 08:18:33;;;;;;;33.67;24.45;;;;;;;2.95;87.55;98998.82;1633626;86;21522;-82
2022/02/03 08:21:04;;;;;;;35.73;23.92;;;;;;;2.99;87.40;99002.66;1655342;85;21618;-81
2022/02/03 08:26:24;;;;;;;30.43;21.53;;;;;;;3.12;87.24;99010.50;1678358;85;21081;-86
2022/02/03 08:31:39;;;;;;;30.80;23.12;;;;;;;3.14;86.82;99012.44;1665063;85;21555;-83
2022/02/03 08:33:56;;;;;;;33.53;21.97;;;;;;;3.11;86.59;99008.91;1675273;83;21656;-87
2022/02/03 08:36:26;;;;;;;38.53;26.90;;;;;;;3.07;86.54;99018.31;1664451;83;21348;-86
2022/02/03 08:38:56;;;;;;;36.08;23.92;;;;;;;3.02;86.56;99020.30;1661601;86;21082;-85
2022/02/03 08:41:25;;;;;;;24.70;17.62;;;;;;;2.99;86.68;99020.74;1651758;86;20983;-87
2022/02/03 08:43:54;;;;;;;26.45;19.37;;;;;;;2.97;86.95;99028.10;1679249;84;20912;-90
2022/02/03 08:46:26;;;;;;;20.15;16.80;;;;;;;2.96;87.17;99029.16;1677729;85;20983;-85
2022/02/03 08:48:57;;;;;;;24.30;16.07;;;;;;;2.94;87.48;99025.89;1653483;86;21119;-86
2022/02/03 08:51:25;;;;;;;20.60;14.70;;;;;;;2.93;87.78;99028.75;1642758;86;21153;-87
2022/02/03 08:53:56;;;;;;;21.02;15.65;;;;;;;2.90;88.02;99031.85;1668888;85;21032;-87
2022/02/03 08:56:36;;;;;;;18.05;13.68;;;;;;;2.88;88.19;99043.19;1666038;85;21081;-89
2022/02/03 09:31:50;;;;;;;14.28;11.08;;;;;;;2.31;91.75;99079.48;1667470;86;21099;-83
2022/02/03 09:38:13;;;;;;;16.12;11.55;;;;;;;1.95;92.73;99082.72;1664846;85;21130;-77
2022/02/03 09:40:49;;;;;;;14.13;10.48;;;;;;;1.87;93.30;99076.29;1659076;86;22097;-78
2022/02/03 09:54:13;;;;;;;9.53;8.58;;;;;;;1.64;95.77;99090.02;1649837;86;21118;-80
2022/02/03 09:59:12;;;;;;;10.27;8.83;;;;;;;1.60;96.54;99080.86;1644144;86;21137;-83
2022/02/03 10:01:41;;;;;;;10.03;8.38;;;;;;;1.54;97.00;99092.28;1652976;86;21094;-82
2022/02/03 10:04:14;;;;;;;8.38;7.47;;;;;;;1.50;97.17;99091.06;1635587;87;21042;-78
2022/02/03 10:06:55;;;;;;;9.40;7.58;;;;;;;1.46;97.34;99099.63;1599634;87;21050;-85
2022/02/03 10:09:40;;;;;;;9.58;8.40;;;;;;;1.40;97.91;99103.91;1605859;88;21056;-80
2022/02/03 10:12:09;;;;;;;10.25;7.97;;;;;;;1.38;98.11;99107.30;1616091;88;21175;-75
2022/02/03 10:14:42;;;;;;;10.58;8.40;;;;;;;1.34;98.19;99105.27;1595134;88;21032;-79
2022/02/03 10:17:09;;;;;;;10.33;9.07;;;;;;;1.34;98.51;99113.20;1616380;88;21146;-77
2022/02/03 10:19:38;;;;;;;11.22;9.45;;;;;;;1.32;98.52;99106.78;1594898;88;20944;-76
2022/02/03 10:22:20;;;;;;;8.28;7.35;;;;;;;1.32;98.74;99105.45;1622132;87;21086;-79
2022/02/03 10:24:50;;;;;;;9.10;8.00;;;;;;;1.29;98.72;99109.84;1615096;87;21881;-85
2022/02/03 10:27:26;;;;;;;8.73;7.57;;;;;;;1.27;98.80;99113.20;1554336;88;21066;-86
2022/02/03 10:30:23;;;;;;;9.57;8.67;;;;;;;1.24;98.91;99130.33;1618141;87;21973;-86
2022/02/03 10:32:47;;;;;;;8.47;7.57;;;;;;;1.20;98.85;99111.86;1606624;87;21595;-91
2022/02/03 10:35:24;;;;;;;10.30;9.00;;;;;;;1.23;98.98;99133.17;1549437;88;21124;-88
2022/02/03 10:52:01;;;;;;;9.80;8.80;;;;;;;1.11;98.67;99142.72;1615999;88;21585;-81
2022/02/03 10:54:38;;;;;;;9.77;8.77;;;;;;;1.09;98.65;99154.05;1613619;88;21012;-76
2022/02/03 11:02:35;;;;;;;11.77;10.57;;;;;;;1.04;98.61;99174.51;1630099;85;21053;-76
2022/02/03 11:10:29;;;;;;;10.63;9.07;;;;;;;0.87;97.81;99181.17;1637091;86;21038;-76
2022/02/03 11:12:52;;;;;;;11.57;9.37;;;;;;;0.84;97.61;99177.11;1623417;87;21576;-77
2022/02/03 11:15:21;;;;;;;13.37;11.07;;;;;;;0.84;97.08;99176.29;1638667;87;21517;-75
2022/02/03 11:17:49;;;;;;;16.67;11.30;;;;;;;0.80;96.83;99189.11;1665886;85;21157;-80
2022/02/03 11:20:23;;;;;;;11.90;9.73;;;;;;;0.81;96.80;99184.13;1633842;87;21069;-84
2022/02/03 11:25:57;;;;;;;13.20;10.80;;;;;;;0.74;95.35;99189.08;1612956;87;21594;-79
2022/02/03 11:47:25;;;;;;;20.70;13.60;;;;;;;0.53;93.20;99195.84;1675879;84;21030;-73
2022/02/03 12:01:19;;;;;;;13.00;9.20;;;;;;;0.46;92.57;99250.53;1674019;85;21575;-78
2022/02/03 12:15:49;;;;;;;14.30;9.77;;;;;;;0.37;91.30;99244.09;1679257;85;21023;-80
2022/02/03 12:18:16;;;;;;;10.33;8.23;;;;;;;0.37;91.23;99222.11;1666371;85;21025;-75
2022/02/03 12:24:01;;;;;;;10.77;8.37;;;;;;;0.32;90.67;99257.08;1621143;86;21583;-74
2022/02/03 12:26:41;;;;;;;13.27;8.40;;;;;;;0.32;90.65;99242.53;1631215;87;22323;-77
2022/02/03 12:29:23;;;;;;;9.77;7.77;;;;;;;0.31;90.53;99247.50;1617538;87;21416;-75
2022/02/03 12:32:13;;;;;;;11.25;8.53;;;;;;;0.34;90.73;99264.80;1609908;88;21015;-74
2022/02/03 12:37:45;;;;;;;11.10;9.23;;;;;;;0.32;90.87;99258.41;1611661;89;21191;-71
2022/02/03 12:43:27;;;;;;;9.23;7.47;;;;;;;0.32;91.50;99266.84;1657208;85;20967;-71
2022/02/03 12:45:28;;;;;;;10.73;7.00;;;;;;;0.32;91.85;99276.91;1669023;85;21550;-69
2022/02/03 12:47:44;;;;;;;13.13;8.20;;;;;;;0.33;92.04;99281.20;1649101;85;21088;-73
2022/02/03 12:50:18;;;;;;;9.23;7.57;;;;;;;0.33;92.35;99282.52;1668203;85;20998;-83
2022/02/03 12:52:45;;;;;;;9.63;7.70;;;;;;;0.34;92.69;99280.67;1669015;85;21126;-80
2022/02/03 12:55:28;;;;;;;10.03;8.10;;;;;;;0.36;92.86;99287.41;1649093;86;21066;-72
2022/02/03 12:57:57;;;;;;;14.13;10.25;;;;;;;0.37;92.89;99292.20;1650330;85;20940;-81
2022/02/03 13:00:38;;;;;;;9.83;8.63;;;;;;;0.37;92.96;99310.72;1681863;84;21040;-80
2022/02/03 13:03:04;;;;;;;9.50;7.73;;;;;;;0.33;92.79;99306.33;1680841;85;21081;-88
2022/02/03 13:05:35;;;;;;;8.73;6.90;;;;;;;0.32;92.91;99303.86;1679866;85;20960;-81
2022/02/03 13:08:09;;;;;;;10.83;9.43;;;;;;;0.31;92.80;99318.09;1675624;85;21099;-81
2022/02/03 13:10:39;;;;;;;11.20;9.33;;;;;;;0.29;92.37;99310.84;1655818;86;21100;-81
2022/02/03 13:13:30;;;;;;;11.47;9.23;;;;;;;0.30;92.16;99308.52;1652671;84;21557;-86
2022/02/03 13:15:47;;;;;;;11.93;9.47;;;;;;;0.32;91.92;99328.98;1647019;87;21069;-87
2022/02/03 13:18:28;;;;;;;8.83;7.63;;;;;;;0.30;91.47;99321.23;1662048;85;21054;-90
2022/02/03 13:21:06;;;;;;;9.97;8.23;;;;;;;0.31;91.32;99318.91;1639219;86;20993;-76
2022/02/03 13:23:30;;;;;;;12.57;9.57;;;;;;;0.31;90.99;99320.23;1663035;85;20993;-75
2022/02/03 13:26:06;;;;;;;14.90;11.27;;;;;;;0.29;90.90;99328.03;1651126;86;21104;-72
2022/02/03 13:28:45;;;;;;;15.23;10.53;;;;;;;0.28;90.85;99316.66;1660829;86;21566;-74
2022/02/03 13:31:31;;;;;;;14.80;12.67;;;;;;;0.27;90.95;99309.73;1650356;86;20983;-75
2022/02/03 13:34:03;;;;;;;14.27;11.00;;;;;;;0.22;91.30;99322.71;1651712;85;21034;-77
2022/02/03 13:36:27;;;;;;;12.97;9.13;;;;;;;0.20;91.65;99322.58;1661308;85;21634;-84
2022/02/03 13:39:04;;;;;;;11.37;8.87;;;;;;;0.19;91.89;99326.25;1633367;87;21547;-79
2022/02/03 13:41:32;;;;;;;13.63;8.87;;;;;;;0.21;92.10;99322.90;1646240;85;21382;-79
2022/02/03 13:44:05;;;;;;;12.53;8.40;;;;;;;0.19;92.41;99324.40;1650911;85;21091;-73
2022/02/03 13:46:39;;;;;;;10.77;8.73;;;;;;;0.17;92.44;99334.38;1651052;86;21009;-80
2022/02/03 13:49:15;;;;;;;16.62;10.28;;;;;;;0.12;92.29;99349.98;1613625;87;21076;-72
2022/02/03 13:51:42;;;;;;;12.30;9.53;;;;;;;0.08;92.00;99355.34;1650148;85;21536;-72
2022/02/03 13:54:52;;;;;;;15.30;11.30;;;;;;;0.06;91.40;99359.17;1649580;85;21125;-72
2022/02/03 14:16:52;;;;;;;12.87;10.27;;;;;;;-0.18;89.08;99378.88;1663991;84;20962;-76
2022/02/03 14:21:41;;;;;;;10.17;7.77;;;;;;;-0.19;89.00;99360.09;1664126;85;21089;-77
2022/02/03 14:27:08;;;;;;;14.43;10.37;;;;;;;-0.19;88.96;99375.41;1654802;86;20963;-75
2022/02/03 14:29:25;;;;;;;24.37;14.87;;;;;;;-0.21;88.70;99379.27;1656389;84;21073;-77
2022/02/03 14:32:07;;;;;;;16.87;10.80;;;;;;;-0.25;88.33;99402.61;1651907;85;21084;-77
2022/02/03 14:34:33;;;;;;;18.03;12.20;;;;;;;-0.30;88.15;99412.92;1664230;84;21128;-75
2022/02/03 14:37:28;;;;;;;19.17;13.40;;;;;;;-0.30;88.42;99406.32;1664503;84;21070;-77
2022/02/03 14:42:18;;;;;;;18.32;13.83;;;;;;;-0.32;88.30;99408.31;1664482;85;21533;-73
2022/02/03 14:44:45;;;;;;;15.40;13.10;;;;;;;-0.34;88.26;99404.23;1664747;84;21100;-71
2022/02/03 14:47:11;;;;;;;15.90;11.97;;;;;;;-0.33;88.41;99406.67;1677218;84;21056;-74
2022/02/03 14:49:41;;;;;;;15.17;11.57;;;;;;;-0.30;88.54;99412.92;1664844;85;21167;-71
2022/02/03 14:52:22;;;;;;;16.77;13.20;;;;;;;-0.28;88.49;99409.58;1664062;84;21029;-74
2022/02/03 15:00:14;;;;;;;15.63;10.83;;;;;;;-0.30;88.53;99424.81;1675580;84;21055;-77
2022/02/03 15:02:41;;;;;;;12.63;10.00;;;;;;;-0.31;88.42;99423.67;1675809;84;21090;-76
2022/02/03 15:05:12;;;;;;;10.57;8.43;;;;;;;-0.34;88.31;99435.44;1653652;86;21542;-72
2022/02/03 15:07:42;;;;;;;13.27;10.23;;;;;;;-0.34;88.08;99475.08;1665878;84;21074;-80
2022/02/03 15:10:40;;;;;;;13.13;8.67;;;;;;;-0.40;87.08;99460.45;1654558;86;21523;-86
2022/02/03 15:13:00;;;;;;;10.87;8.40;;;;;;;-0.47;86.25;99457.72;1657858;84;21019;-79
2022/02/03 15:15:28;;;;;;;15.10;9.47;;;;;;;-0.47;85.93;99470.92;1653651;84;21098;-88
2022/02/03 15:18:08;;;;;;;11.90;8.50;;;;;;;-0.51;85.84;99473.13;1671406;84;21002;-82
2022/02/03 15:20:42;;;;;;;19.50;10.50;;;;;;;-0.50;85.88;99470.81;1668574;84;21543;-87
2022/02/03 15:23:08;;;;;;;13.43;8.83;;;;;;;-0.49;85.58;99472.45;1660829;85;21015;-75
2022/02/03 15:25:37;;;;;;;17.40;10.60;;;;;;;-0.52;85.54;99472.80;1666531;84;21533;-78
2022/02/03 15:28:04;;;;;;;13.67;9.07;;;;;;;-0.52;84.97;99484.69;1649140;86;21136;-86
2022/02/03 15:30:32;;;;;;;23.97;11.33;;;;;;;-0.52;84.93;99485.19;1604581;86;21001;-86
2022/02/03 15:33:01;;;;;;;11.50;8.53;;;;;;;-0.53;84.95;99490.17;1658397;85;21161;-90
2022/02/03 15:35:34;;;;;;;15.90;10.20;;;;;;;-0.55;84.43;99496.13;1663636;86;21020;-80
2022/02/03 15:37:59;;;;;;;12.13;9.77;;;;;;;-0.57;84.45;99494.98;1663354;85;21423;-78
2022/02/03 15:40:29;;;;;;;17.57;10.53;;;;;;;-0.59;84.30;99493.04;1653815;86;21284;-78
2022/02/03 15:43:08;;;;;;;13.90;7.83;;;;;;;-0.59;84.24;99510.70;1661715;85;21051;-80
2022/02/03 15:45:36;;;;;;;9.13;6.70;;;;;;;-0.59;84.14;99511.52;1663159;85;21031;-84
2022/02/03 15:48:06;;;;;;;12.57;8.70;;;;;;;-0.56;84.13;99497.13;1627401;87;20991;-78
2022/02/03 15:56:52;;;;;;;11.73;8.47;;;;;;;-0.61;84.02;99508.23;1663369;86;21069;-87
2022/02/03 16:04:29;;;;;;;11.43;9.30;;;;;;;-0.62;84.35;99515.83;1665689;85;21028;-91
2022/02/03 16:17:45;;;;;;;16.87;10.23;;;;;;;-0.73;85.51;99532.15;1682347;85;21018;-86
2022/02/03 16:20:18;;;;;;;13.73;10.33;;;;;;;-0.76;85.31;99536.45;1669826;85;21049;-81
2022/02/03 16:22:57;;;;;;;13.47;9.37;;;;;;;-0.79;85.40;99548.70;1668222;85;21078;-80
2022/02/03 16:52:45;;;;;;;10.43;8.13;;;;;;;-1.18;82.41;99594.25;1663699;85;21045;-74
2022/02/03 16:55:16;;;;;;;12.67;8.37;;;;;;;-1.19;82.34;99603.98;1664139;85;21582;-75
2022/02/03 16:57:43;;;;;;;12.87;8.67;;;;;;;-1.19;82.18;99591.28;1654371;86;21573;-81
2022/02/03 17:00:15;;;;;;;11.53;7.80;;;;;;;-1.21;81.99;99596.75;1629265;86;20994;-82
2022/02/03 17:02:45;;;;;;;7.13;5.43;;;;;;;-1.24;81.48;99609.45;1676087;85;21032;-87
2022/02/03 17:05:13;;;;;;;12.37;7.73;;;;;;;-1.25;81.30;99605.20;1654544;86;21048;-87
2022/02/03 17:07:45;;;;;;;12.70;7.13;;;;;;;-1.26;81.08;99600.42;1663309;85;21041;-86
2022/02/03 17:10:16;;;;;;;10.13;7.80;;;;;;;-1.28;80.42;99609.48;1676507;85;21041;-85
2022/02/03 17:12:43;;;;;;;12.47;6.90;;;;;;;-1.29;80.35;99622.38;1663758;85;21605;-80
2022/02/03 17:15:14;;;;;;;9.57;7.13;;;;;;;-1.36;79.30;99640.22;1643486;85;21123;-78
2022/02/03 17:17:45;;;;;;;10.70;6.80;;;;;;;-1.41;79.03;99632.00;1674640;84;20967;-79
2022/02/03 17:20:13;;;;;;;11.25;7.75;;;;;;;-1.43;78.57;99639.75;1652202;86;20994;-76
2022/02/03 17:22:49;;;;;;;9.60;7.47;;;;;;;-1.50;77.93;99635.69;1659289;85;21569;-77
2022/02/03 17:25:24;;;;;;;9.00;6.77;;;;;;;-1.53;77.94;99623.33;1661475;85;21155;-78
2022/02/03 17:27:56;;;;;;;7.83;6.33;;;;;;;-1.55;77.96;99636.70;1659836;85;21554;-87
2022/02/03 17:30:22;;;;;;;8.13;5.87;;;;;;;-1.55;77.76;99650.39;1665398;85;20995;-77
2022/02/03 17:52:37;;;;;;;7.67;6.90;;;;;;;-1.76;75.47;99653.11;1660736;85;21168;-81
2022/02/03 18:03:42;;;;;;;6.60;5.30;;;;;;;-1.72;75.69;99648.31;1658833;86;21029;-84
2022/02/03 18:33:42;;;;;;;5.67;4.47;;;;;;;-1.83;74.82;99653.98;1651415;86;21226;-73
2022/02/03 18:36:01;;;;;;;6.33;5.17;;;;;;;-1.82;74.77;99651.16;1695783;84;20971;-78
2022/02/03 18:47:50;;;;;;;6.30;4.50;;;;;;;-1.92;73.99;99655.81;1680618;84;21160;-82
2022/02/03 18:52:27;;;;;;;6.20;4.77;;;;;;;-1.95;73.65;99649.57;1670582;84;21086;-83
2022/02/03 19:03:05;;;;;;;6.33;5.20;;;;;;;-1.96;72.40;99670.81;1676851;84;21038;-79
2022/02/03 19:56:31;;;;;;;7.27;4.37;;;;;;;-2.08;71.24;99670.38;1648382;85;21083;-75
2022/02/03 20:02:45;;;;;;;6.27;3.43;;;;;;;-2.04;71.00;99685.34;1659710;85;21078;-75
2022/02/03 20:07:46;;;;;;;6.43;4.00;;;;;;;-2.13;70.50;99693.77;1626091;86;22375;-75
2022/02/03 20:10:13;;;;;;;5.23;3.93;;;;;;;-2.13;70.72;99685.87;1673548;85;21059;-77
2022/02/03 20:12:30;;;;;;;5.47;4.30;;;;;;;-2.10;70.94;99687.33;1666318;85;21023;-73
2022/02/03 20:14:57;;;;;;;6.67;3.97;;;;;;;-2.11;70.97;99687.02;1682679;84;21134;-74
2022/02/03 20:17:27;;;;;;;5.67;4.60;;;;;;;-2.12;70.86;99676.98;1670380;84;21525;-74
2022/02/03 20:19:52;;;;;;;4.77;3.60;;;;;;;-2.10;71.08;99671.03;1664704;85;21181;-73
2022/02/03 20:22:19;;;;;;;5.80;3.57;;;;;;;-2.09;71.22;99666.58;1633813;87;21043;-76
2022/02/03 20:24:47;;;;;;;6.73;4.30;;;;;;;-2.14;71.06;99682.08;1635164;87;21519;-77
2022/02/03 20:27:18;;;;;;;4.60;3.50;;;;;;;-2.13;71.42;99677.14;1636935;85;21556;-79
2022/02/03 20:29:45;;;;;;;8.00;3.97;;;;;;;-2.13;71.34;99677.96;1636938;87;21070;-79
2022/02/03 20:32:11;;;;;;;6.93;4.30;;;;;;;-2.11;71.41;99671.22;1620552;87;21078;-77
2022/02/03 20:34:39;;;;;;;5.13;3.80;;;;;;;-2.14;71.50;99672.36;1661556;86;21006;-79
2022/02/03 20:37:08;;;;;;;7.60;4.07;;;;;;;-2.14;71.56;99663.14;1669706;85;20987;-77
2022/02/03 20:39:38;;;;;;;5.60;4.40;;;;;;;-2.15;71.21;99665.44;1649703;86;21058;-78
2022/02/03 20:42:07;;;;;;;4.27;3.30;;;;;;;-2.15;71.39;99668.08;1662057;86;21577;-78
2022/02/03 20:44:34;;;;;;;4.70;4.20;;;;;;;-2.15;71.36;99660.17;1664131;86;21525;-81
2022/02/03 20:47:00;;;;;;;5.73;3.90;;;;;;;-2.18;71.25;99661.02;1655748;85;21043;-78
2022/02/03 20:49:27;;;;;;;5.10;3.73;;;;;;;-2.21;71.42;99645.06;1658227;86;21052;-79
2022/02/03 20:51:55;;;;;;;4.27;3.80;;;;;;;-2.23;71.47;99651.81;1671382;85;21076;-75
2022/02/03 20:54:21;;;;;;;6.00;3.63;;;;;;;-2.24;71.52;99654.11;1669888;86;21551;-80
2022/02/03 20:56:47;;;;;;;5.40;3.93;;;;;;;-2.22;71.57;99645.56;1672283;85;21129;-75
2022/02/03 20:59:14;;;;;;;4.77;3.90;;;;;;;-2.25;71.32;99656.41;1668939;85;21000;-78
2022/02/03 21:01:43;;;;;;;6.17;4.10;;;;;;;-2.27;71.40;99657.59;1683156;84;21045;-76
2022/02/03 21:04:15;;;;;;;3.33;2.93;;;;;;;-2.27;71.47;99653.63;1680413;84;20996;-78
2022/02/03 21:06:38;;;;;;;5.30;4.80;;;;;;;-2.27;71.39;99647.05;1671963;85;21529;-78
2022/02/03 21:09:06;;;;;;;7.23;3.17;;;;;;;-2.30;71.25;99656.59;1637326;85;21611;-79
2022/02/03 21:11:33;;;;;;;8.07;4.70;;;;;;;-2.32;71.06;99666.48;1654783;86;21040;-76
2022/02/03 21:14:02;;;;;;;8.17;4.43;;;;;;;-2.33;71.06;99666.98;1668633;85;21068;-78
2022/02/03 21:16:30;;;;;;;4.63;3.93;;;;;;;-2.32;70.95;99686.23;1655179;86;22395;-77
2022/02/03 21:18:56;;;;;;;9.40;6.87;;;;;;;-2.35;70.55;99686.58;1659875;85;21039;-78
2022/02/03 21:21:23;;;;;;;4.67;3.83;;;;;;;-2.36;70.58;99683.61;1653790;86;21005;-76
2022/02/03 21:23:49;;;;;;;5.80;3.67;;;;;;;-2.40;70.31;99692.31;1676786;84;21076;-79